HKMO/MBA METAR and TAF weather

Enter ICAO airport designator
Station Type Date Time Source
HKMO METAR 2021/07/30 22:00 UTC NOAA

HKMO 302200Z 22007KT 9999 SCT020 23/20 Q1019 NOSIG


Station Type Date Time Source
HKMO Decoded METAR 2021/07/30 22:00 UTC NOAA

Mombasa, Kenya (HKMO) 04-02S 039-37E 55M
Jul 30, 2021 - 06:00 PM EDT / 2021.07.30 2200 UTC
Wind: from the SW (220 degrees) at 8 MPH (7 KT):0
Visibility: greater than 7 mile(s):0
Sky conditions: partly cloudy
Temperature: 73 F (23 C)
Dew Point: 68 F (20 C)
Relative Humidity: 83%
Pressure (altimeter): 30.09 in. Hg (1019 hPa)
ob: HKMO 302200Z 22007KT 9999 SCT020 23/20 Q1019 NOSIG
cycle: 22

Station Type Date Time Source
HKMO TAF 2021/07/30 18:15 UTC NOAA

TAF TAF HKMO 301700Z 3018/3124 24005KT 9999 FEW018 SCT080
BECMG 3109/3112 18010KT SCT024

Example: see airport list